Time;durP1;ratioP1;P1;durP2;ratioP2;P2;SDS_P1;SDS_P2;PMS_P1;PMS_P2;Temp;Humidity;BMP_temperature;BMP_pressure;BME280_temperature;BME280_humidity;BME280_pressure;Samples;Min_cycle;Max_cycle;Signal;HPM_P1;HPM_P2
2020/12/15 00:01:54;;;;;;;21.43;12.23;;;10.40;99.90;;;;;;5024994;28;38911;-77
2020/12/15 00:04:20;;;;;;;16.27;11.33;;;10.40;99.90;;;;;;5020905;28;39696;-78
2020/12/15 00:06:46;;;;;;;21.37;11.67;;;10.40;99.90;;;;;;5022364;28;38269;-78
2020/12/15 00:09:12;;;;;;;19.43;12.10;;;10.40;99.90;;;;;;5022851;28;36002;-78
2020/12/15 00:11:38;;;;;;;18.40;12.57;;;10.40;99.90;;;;;;5024816;28;37980;-78
2020/12/15 00:14:05;;;;;;;19.97;12.30;;;10.40;99.90;;;;;;5020328;28;38271;-78
2020/12/15 00:16:31;;;;;;;15.90;12.83;;;10.40;99.90;;;;;;5030448;28;36623;-78
2020/12/15 00:18:57;;;;;;;17.33;12.27;;;10.40;99.90;;;;;;5018194;28;37755;-78
2020/12/15 00:21:25;;;;;;;16.37;13.00;;;10.40;99.90;;;;;;5040109;28;38484;-78
2020/12/15 00:23:54;;;;;;;19.83;12.20;;;10.40;99.90;;;;;;5034830;28;37781;-78
2020/12/15 00:26:21;;;;;;;13.17;11.07;;;10.40;99.90;;;;;;5004441;28;37782;-78
2020/12/15 00:28:50;;;;;;;17.13;10.93;;;10.40;99.90;;;;;;5008465;28;36442;-78
2020/12/15 00:31:18;;;;;;;21.07;12.13;;;10.40;99.90;;;;;;5015263;28;37835;-78
2020/12/15 00:33:44;;;;;;;17.60;11.87;;;10.40;99.90;;;;;;5001686;28;39430;-77
2020/12/15 00:36:16;;;;;;;14.80;10.30;;;10.40;99.90;;;;;;5012355;28;38701;-78
2020/12/15 00:38:42;;;;;;;16.98;12.10;;;10.40;99.90;;;;;;5024471;28;36650;-78
2020/12/15 00:41:08;;;;;;;13.63;10.87;;;10.40;99.90;;;;;;5015944;28;39498;-78
2020/12/15 00:43:34;;;;;;;17.90;11.00;;;10.40;99.90;;;;;;5019702;28;39342;-78
2020/12/15 00:46:00;;;;;;;16.35;11.80;;;10.40;99.90;;;;;;5019744;28;38569;-78
2020/12/15 00:48:26;;;;;;;14.03;11.53;;;10.40;99.90;;;;;;5009382;28;36399;-78
2020/12/15 00:50:52;;;;;;;19.20;11.33;;;10.40;99.90;;;;;;5033956;28;38082;-78
2020/12/15 00:53:18;;;;;;;16.93;11.20;;;10.40;99.90;;;;;;5024789;28;37199;-78
2020/12/15 00:55:44;;;;;;;14.90;11.20;;;10.40;99.90;;;;;;5021114;28;37918;-78
2020/12/15 00:58:11;;;;;;;16.20;10.40;;;10.40;99.90;;;;;;5021468;28;36328;-78
2020/12/15 01:00:37;;;;;;;15.13;10.40;;;10.40;99.90;;;;;;5037621;28;37909;-78
2020/12/15 01:03:03;;;;;;;22.53;11.50;;;10.40;99.90;;;;;;5023802;28;38411;-78
2020/12/15 01:05:29;;;;;;;15.53;11.23;;;10.40;99.90;;;;;;5003887;28;37135;-78
2020/12/15 01:07:55;;;;;;;16.07;11.13;;;10.40;99.90;;;;;;5006329;28;38207;-77
2020/12/15 01:10:22;;;;;;;15.93;10.53;;;10.40;99.90;;;;;;4998014;28;38555;-77
2020/12/15 01:12:48;;;;;;;14.13;10.93;;;10.40;99.90;;;;;;5020265;28;37379;-79
2020/12/15 01:15:14;;;;;;;19.33;10.90;;;10.30;99.90;;;;;;5006256;28;36669;-78
2020/12/15 01:17:41;;;;;;;13.83;10.23;;;10.40;99.90;;;;;;5009200;28;39179;-79
2020/12/15 01:20:07;;;;;;;18.93;11.30;;;10.30;99.90;;;;;;5012642;28;38643;-78
2020/12/15 01:22:33;;;;;;;14.73;11.03;;;10.40;99.90;;;;;;5007762;28;38831;-78
2020/12/15 01:24:59;;;;;;;18.70;11.87;;;10.30;99.90;;;;;;5005544;28;38846;-78
2020/12/15 01:27:25;;;;;;;18.53;10.87;;;10.30;99.90;;;;;;5004092;28;38019;-78
2020/12/15 01:29:51;;;;;;;14.60;11.37;;;10.30;99.90;;;;;;5006576;28;38529;-78
2020/12/15 01:32:17;;;;;;;17.50;11.23;;;10.30;99.90;;;;;;5002546;28;38414;-79
2020/12/15 01:34:43;;;;;;;17.40;11.43;;;10.40;99.90;;;;;;5008391;28;38442;-79
2020/12/15 01:37:10;;;;;;;16.87;11.33;;;10.40;99.90;;;;;;5003045;28;37944;-78
2020/12/15 01:39:36;;;;;;;17.13;11.73;;;10.40;99.90;;;;;;5008548;28;38295;-78
2020/12/15 01:42:02;;;;;;;14.33;11.27;;;10.40;99.90;;;;;;5001697;28;38101;-79
2020/12/15 01:44:28;;;;;;;18.27;12.70;;;10.40;99.90;;;;;;4999525;28;39098;-79
2020/12/15 01:46:54;;;;;;;15.10;11.70;;;10.40;99.90;;;;;;5005886;28;36573;-79
2020/12/15 01:49:20;;;;;;;17.23;13.40;;;10.40;99.90;;;;;;5002496;28;38585;-78
2020/12/15 01:51:47;;;;;;;17.20;13.87;;;10.40;99.90;;;;;;5005457;28;38561;-79
2020/12/15 01:54:13;;;;;;;19.17;14.97;;;10.40;99.90;;;;;;5018791;28;37763;-79
2020/12/15 01:56:40;;;;;;;20.50;16.37;;;10.40;99.90;;;;;;5009974;28;37510;-78
2020/12/15 01:59:06;;;;;;;20.47;17.27;;;10.30;99.90;;;;;;5003113;28;38104;-78
2020/12/15 02:01:45;;;;;;;20.23;16.20;;;10.30;99.90;;;;;;5004534;28;39056;-78
2020/12/15 02:04:11;;;;;;;20.20;15.70;;;10.30;99.90;;;;;;4999578;28;37027;-78
2020/12/15 02:06:39;;;;;;;20.87;16.07;;;10.30;99.90;;;;;;5007511;28;38610;-78
2020/12/15 02:09:06;;;;;;;18.53;14.23;;;10.30;99.90;;;;;;5026620;28;37589;-78
2020/12/15 02:11:32;;;;;;;20.80;14.03;;;10.30;99.90;;;;;;5001068;28;37244;-78
2020/12/15 02:13:59;;;;;;;17.97;12.30;;;10.30;99.90;;;;;;5001600;28;36912;-78
2020/12/15 02:16:26;;;;;;;16.47;12.30;;;10.30;99.90;;;;;;5001696;28;37278;-77
2020/12/15 02:18:52;;;;;;;22.23;12.93;;;10.30;99.90;;;;;;4997556;28;39441;-78
2020/12/15 02:21:18;;;;;;;16.03;12.03;;;10.30;99.90;;;;;;5016106;28;37474;-78
2020/12/15 02:23:44;;;;;;;15.80;11.43;;;10.30;99.90;;;;;;5021527;28;37693;-78
2020/12/15 02:26:11;;;;;;;17.80;11.73;;;10.40;99.90;;;;;;5007784;28;36305;-78
2020/12/15 02:28:37;;;;;;;22.13;12.20;;;10.30;99.90;;;;;;5006489;28;39030;-78
2020/12/15 02:31:04;;;;;;;16.43;11.40;;;10.40;99.90;;;;;;5001601;28;37405;-79
2020/12/15 02:33:32;;;;;;;20.57;12.87;;;10.40;99.90;;;;;;5016729;28;39313;-78
2020/12/15 02:35:59;;;;;;;21.40;13.33;;;10.40;99.90;;;;;;5006410;28;37265;-79
2020/12/15 02:38:25;;;;;;;19.97;13.07;;;10.50;99.90;;;;;;5011836;28;37899;-79
2020/12/15 02:40:51;;;;;;;14.87;11.00;;;10.50;99.90;;;;;;5006918;28;39231;-79
2020/12/15 02:43:17;;;;;;;15.93;12.23;;;10.50;99.90;;;;;;5005014;28;37117;-78
2020/12/15 02:45:43;;;;;;;14.53;10.43;;;10.50;99.90;;;;;;5009243;28;36962;-78
2020/12/15 02:48:09;;;;;;;12.70;10.53;;;10.50;99.90;;;;;;5003827;28;38641;-79
2020/12/15 02:50:36;;;;;;;14.93;10.80;;;10.50;99.90;;;;;;5007013;28;39136;-79
2020/12/15 02:53:02;;;;;;;15.60;11.17;;;10.50;99.90;;;;;;5007023;28;38240;-78
2020/12/15 02:55:28;;;;;;;17.70;11.07;;;10.50;99.90;;;;;;5010350;28;36429;-79
2020/12/15 02:57:55;;;;;;;15.87;11.10;;;10.50;99.90;;;;;;5005896;28;37648;-78
2020/12/15 03:00:22;;;;;;;15.57;11.43;;;10.60;99.90;;;;;;5009470;28;37908;-78
2020/12/15 03:02:48;;;;;;;13.00;10.47;;;10.60;99.90;;;;;;5018350;28;37109;-79
2020/12/15 03:05:15;;;;;;;15.50;10.33;;;10.60;99.90;;;;;;5006895;28;36153;-79
2020/12/15 03:07:41;;;;;;;18.13;11.10;;;10.60;99.90;;;;;;5003666;28;39855;-79
2020/12/15 03:10:08;;;;;;;16.07;10.60;;;10.60;99.90;;;;;;5005790;28;38619;-78
2020/12/15 03:12:34;;;;;;;15.90;11.50;;;10.60;99.90;;;;;;5006769;28;37951;-78
2020/12/15 03:15:02;;;;;;;15.97;10.87;;;10.50;99.90;;;;;;5007039;28;36862;-79
2020/12/15 03:17:28;;;;;;;14.57;11.93;;;10.60;99.90;;;;;;5007167;28;38534;-78
2020/12/15 03:19:54;;;;;;;15.90;11.70;;;10.50;99.90;;;;;;4999260;28;38537;-79
2020/12/15 03:22:20;;;;;;;15.27;11.50;;;10.60;99.90;;;;;;5018030;28;36902;-79
2020/12/15 03:24:46;;;;;;;16.10;11.00;;;10.50;99.90;;;;;;5005425;28;36175;-79
2020/12/15 03:27:13;;;;;;;12.63;9.70;;;10.50;99.90;;;;;;5004359;28;37795;-78
2020/12/15 03:29:39;;;;;;;15.20;11.17;;;10.60;99.90;;;;;;5017933;28;35830;-79
2020/12/15 03:32:05;;;;;;;16.10;11.67;;;10.60;99.90;;;;;;5012351;28;37472;-79
2020/12/15 03:34:31;;;;;;;14.70;11.40;;;10.50;99.90;;;;;;5019543;28;36566;-79
2020/12/15 03:36:57;;;;;;;14.73;11.17;;;10.60;99.90;;;;;;5000415;28;39424;-79
2020/12/15 03:39:23;;;;;;;18.03;11.70;;;10.50;99.90;;;;;;5013299;28;38216;-79
2020/12/15 03:41:49;;;;;;;12.10;9.53;;;10.60;99.90;;;;;;5000100;28;38315;-79
2020/12/15 03:44:15;;;;;;;18.23;10.63;;;10.60;99.90;;;;;;5019659;28;37208;-79
2020/12/15 03:46:41;;;;;;;13.00;10.10;;;10.60;99.90;;;;;;5006490;28;37818;-79
2020/12/15 03:49:07;;;;;;;16.40;11.03;;;10.60;99.90;;;;;;5000939;28;38123;-79
2020/12/15 03:51:34;;;;;;;12.13;10.30;;;10.50;99.90;;;;;;5001366;28;35928;-77
2020/12/15 03:54:00;;;;;;;13.00;10.05;;;10.50;99.90;;;;;;5001156;28;37190;-79
2020/12/15 03:56:26;;;;;;;15.77;12.47;;;10.40;99.90;;;;;;5010750;28;38669;-79
2020/12/15 03:58:52;;;;;;;18.90;11.30;;;10.50;99.90;;;;;;5006154;28;38585;-79
2020/12/15 04:01:18;;;;;;;15.67;11.10;;;10.50;99.90;;;;;;5006633;28;37270;-79
2020/12/15 04:03:45;;;;;;;16.27;12.87;;;10.40;99.90;;;;;;5010500;28;36945;-79
2020/12/15 04:06:11;;;;;;;16.03;11.60;;;10.40;99.90;;;;;;5014106;28;35484;-78
2020/12/15 04:08:37;;;;;;;16.70;11.53;;;10.40;99.90;;;;;;5005128;28;38519;-79
2020/12/15 04:11:03;;;;;;;14.10;11.63;;;10.40;99.90;;;;;;5005834;28;38433;-78
2020/12/15 04:13:29;;;;;;;13.57;10.90;;;10.40;99.90;;;;;;5004604;28;38703;-79
2020/12/15 04:15:55;;;;;;;16.63;12.83;;;10.50;99.90;;;;;;5005737;28;41522;-79
2020/12/15 04:18:22;;;;;;;16.97;11.60;;;10.50;99.90;;;;;;5002620;28;38131;-78
2020/12/15 04:20:51;;;;;;;14.27;10.20;;;10.50;99.90;;;;;;5011552;28;37713;-79
2020/12/15 04:23:18;;;;;;;13.50;10.30;;;10.50;99.90;;;;;;5022034;28;36693;-79
2020/12/15 04:25:56;;;;;;;13.63;10.40;;;10.40;99.90;;;;;;5003161;28;38633;-79
2020/12/15 04:28:22;;;;;;;14.53;11.10;;;10.50;99.90;;;;;;5008240;28;38182;-78
2020/12/15 04:30:48;;;;;;;15.13;10.93;;;10.50;99.90;;;;;;5007537;28;36276;-79
2020/12/15 04:33:14;;;;;;;11.73;10.30;;;10.50;99.90;;;;;;5013027;28;37447;-79
2020/12/15 04:35:41;;;;;;;13.57;10.03;;;10.60;99.90;;;;;;5014092;28;37964;-79
2020/12/15 04:38:07;;;;;;;12.63;9.97;;;10.60;99.90;;;;;;5027998;28;38815;-79
2020/12/15 04:40:34;;;;;;;15.87;10.43;;;10.60;99.90;;;;;;5020791;28;38286;-78
2020/12/15 04:43:01;;;;;;;14.30;10.63;;;10.50;99.90;;;;;;5014899;28;36805;-79
2020/12/15 04:45:29;;;;;;;14.30;10.53;;;10.50;99.90;;;;;;5006771;28;46800;-79
2020/12/15 04:48:04;;;;;;;12.47;9.07;;;10.50;99.90;;;;;;5010366;28;37529;-78
2020/12/15 04:50:35;;;;;;;11.47;9.20;;;10.50;99.90;;;;;;5002259;28;48998;-79
2020/12/15 04:53:12;;;;;;;12.50;9.73;;;10.50;99.90;;;;;;5004736;28;37150;-79
2020/12/15 04:55:39;;;;;;;10.73;9.20;;;10.50;99.90;;;;;;5035807;28;38009;-79
2020/12/15 04:58:07;;;;;;;14.23;10.17;;;10.50;99.90;;;;;;5024884;28;37367;-79
2020/12/15 05:00:34;;;;;;;12.20;9.03;;;10.50;99.90;;;;;;5041448;28;37249;-78
2020/12/15 05:03:02;;;;;;;15.53;9.70;;;10.50;99.90;;;;;;5022231;28;36240;-79
2020/12/15 05:05:29;;;;;;;11.40;8.80;;;10.50;99.90;;;;;;5039690;28;48275;-79
2020/12/15 05:08:00;;;;;;;10.27;8.60;;;10.50;99.90;;;;;;5043703;28;38105;-79
2020/12/15 05:10:26;;;;;;;13.17;8.63;;;10.50;99.90;;;;;;5042906;28;37175;-78
2020/12/15 05:12:52;;;;;;;14.07;9.87;;;10.40;99.90;;;;;;5030163;28;36214;-78
2020/12/15 05:15:19;;;;;;;15.57;9.33;;;10.40;99.90;;;;;;5019902;28;38890;-80
2020/12/15 05:18:00;;;;;;;11.13;9.20;;;10.40;99.90;;;;;;5018725;28;38404;-79
2020/12/15 05:20:28;;;;;;;12.03;9.87;;;10.40;99.90;;;;;;5005390;28;36849;-79
2020/12/15 05:22:54;;;;;;;11.50;8.43;;;10.40;99.90;;;;;;5012002;28;37449;-79
2020/12/15 05:25:29;;;;;;;13.60;8.73;;;10.40;99.90;;;;;;5008860;28;38234;-79
2020/12/15 05:28:16;;;;;;;16.70;9.77;;;10.40;99.90;;;;;;5011590;28;38521;-79
2020/12/15 05:30:42;;;;;;;11.70;8.87;;;10.40;99.90;;;;;;5007102;28;46826;-80
2020/12/15 05:33:14;;;;;;;10.57;9.23;;;10.40;99.90;;;;;;5013402;28;38762;-79
2020/12/15 05:35:41;;;;;;;16.23;10.23;;;10.40;99.90;;;;;;5017033;28;38185;-79
2020/12/15 05:38:07;;;;;;;11.57;9.27;;;10.40;99.90;;;;;;5010784;28;37544;-79
2020/12/15 05:40:34;;;;;;;12.90;9.33;;;10.40;99.90;;;;;;5006939;28;37294;-79
2020/12/15 05:43:05;;;;;;;11.60;8.30;;;10.40;99.90;;;;;;5022321;28;37308;-80
2020/12/15 05:45:32;;;;;;;11.03;8.10;;;10.40;99.90;;;;;;5007629;28;47244;-79
2020/12/15 05:48:08;;;;;;;11.93;8.10;;;10.30;99.90;;;;;;5015243;28;38811;-79
2020/12/15 05:50:38;;;;;;;12.00;9.40;;;10.40;99.90;;;;;;5018455;28;47009;-79
2020/12/15 05:53:07;;;;;;;11.37;8.37;;;10.40;99.90;;;;;;5021887;28;38632;-79
2020/12/15 05:55:33;;;;;;;12.93;8.67;;;10.30;99.90;;;;;;5025736;28;39568;-78
2020/12/15 05:58:00;;;;;;;11.30;8.93;;;10.30;99.90;;;;;;5042417;28;37377;-79
2020/12/15 06:00:29;;;;;;;13.33;9.23;;;10.30;99.90;;;;;;5003238;28;47106;-79
2020/12/15 06:03:05;;;;;;;13.17;9.03;;;10.40;99.90;;;;;;5005247;28;36834;-78
2020/12/15 06:05:36;;;;;;;11.20;8.23;;;10.30;99.90;;;;;;5018436;28;47374;-79
2020/12/15 06:08:04;;;;;;;11.30;9.10;;;10.40;99.90;;;;;;5010667;28;39376;-79
2020/12/15 06:10:32;;;;;;;15.70;9.30;;;10.30;99.90;;;;;;5003175;28;37826;-79
2020/12/15 06:13:00;;;;;;;13.00;9.00;;;10.30;99.90;;;;;;5004513;28;36650;-80
2020/12/15 06:15:27;;;;;;;11.60;8.10;;;10.30;99.90;;;;;;5028975;28;38474;-79
2020/12/15 06:18:02;;;;;;;13.23;9.30;;;10.30;99.90;;;;;;5008535;28;37392;-79
2020/12/15 06:20:33;;;;;;;11.37;8.70;;;10.30;99.90;;;;;;4998301;28;47218;-78
2020/12/15 06:23:00;;;;;;;11.67;8.90;;;10.30;99.90;;;;;;5008672;28;36268;-78
2020/12/15 06:25:29;;;;;;;13.40;9.03;;;10.40;99.90;;;;;;5006149;28;39865;-78
2020/12/15 06:28:03;;;;;;;15.03;9.63;;;10.40;99.90;;;;;;5027438;28;37397;-78
2020/12/15 06:30:34;;;;;;;12.13;9.60;;;10.40;99.90;;;;;;5004896;28;48682;-79
2020/12/15 06:33:03;;;;;;;14.30;10.00;;;10.40;99.90;;;;;;5025204;28;37464;-78
2020/12/15 06:35:30;;;;;;;13.10;9.17;;;10.40;99.90;;;;;;5041742;28;47216;-79
2020/12/15 06:37:56;;;;;;;12.80;9.53;;;10.40;99.90;;;;;;5012676;28;39279;-80
2020/12/15 06:40:22;;;;;;;14.80;10.03;;;10.30;99.90;;;;;;5015653;28;36949;-80
2020/12/15 06:42:55;;;;;;;11.77;9.40;;;10.30;99.90;;;;;;5011256;28;36314;-78
2020/12/15 06:45:23;;;;;;;13.63;10.10;;;10.30;99.90;;;;;;5066287;28;39143;-80
2020/12/15 06:48:06;;;;;;;14.47;10.30;;;10.30;99.90;;;;;;5050393;28;38114;-80
2020/12/15 06:50:43;;;;;;;14.80;8.93;;;10.30;99.90;;;;;;5001775;28;49289;-77
2020/12/15 06:53:11;;;;;;;13.27;10.17;;;10.30;99.90;;;;;;5043456;28;37673;-76
2020/12/15 06:55:37;;;;;;;14.40;10.70;;;10.30;99.90;;;;;;5040958;28;37954;-78
2020/12/15 06:58:04;;;;;;;15.13;10.47;;;10.30;99.90;;;;;;5031034;28;38819;-78
2020/12/15 07:00:40;;;;;;;15.00;10.10;;;10.30;99.90;;;;;;5027095;28;40084;-78
2020/12/15 07:03:07;;;;;;;18.90;10.27;;;10.30;99.90;;;;;;5033244;28;37683;-78
2020/12/15 07:05:35;;;;;;;12.80;9.77;;;10.20;99.90;;;;;;5031008;28;38929;-78
2020/12/15 07:08:09;;;;;;;12.63;9.60;;;10.20;99.90;;;;;;5030192;28;39874;-80
2020/12/15 07:10:40;;;;;;;11.87;9.50;;;10.20;99.90;;;;;;5029837;28;47939;-79
2020/12/15 07:13:06;;;;;;;15.33;11.07;;;10.20;99.90;;;;;;5030930;28;38030;-79
2020/12/15 07:15:34;;;;;;;12.07;10.07;;;10.10;99.90;;;;;;5046280;28;38775;-78
2020/12/15 07:18:05;;;;;;;14.57;10.57;;;10.10;99.90;;;;;;5041904;28;37257;-79
2020/12/15 07:20:32;;;;;;;12.83;10.90;;;10.10;99.90;;;;;;5045293;28;46989;-78
2020/12/15 07:22:58;;;;;;;20.47;12.40;;;10.10;99.90;;;;;;5027790;28;38047;-79
2020/12/15 07:25:24;;;;;;;17.43;11.57;;;10.10;99.90;;;;;;5023334;28;37046;-78
2020/12/15 07:27:51;;;;;;;15.43;9.57;;;10.10;99.90;;;;;;5004556;28;38665;-79
2020/12/15 07:30:20;;;;;;;15.27;10.53;;;10.10;99.90;;;;;;5018257;28;36962;-78
2020/12/15 07:32:47;;;;;;;16.53;10.90;;;10.10;99.90;;;;;;5056935;28;35951;-78
2020/12/15 07:35:22;;;;;;;14.33;11.13;;;10.10;99.90;;;;;;5025502;28;39078;-75
2020/12/15 07:37:49;;;;;;;15.10;10.90;;;10.20;99.90;;;;;;5030921;28;38725;-77
2020/12/15 07:40:17;;;;;;;13.20;9.57;;;10.20;99.90;;;;;;5042223;28;37068;-76
2020/12/15 07:43:16;;;;;;;14.27;10.77;;;10.20;99.90;;;;;;5024765;28;37269;-77
2020/12/15 07:45:43;;;;;;;13.50;9.83;;;10.20;99.90;;;;;;5001103;28;47551;-77
2020/12/15 07:48:09;;;;;;;15.00;11.80;;;10.20;99.90;;;;;;5007911;28;37222;-77
2020/12/15 07:50:36;;;;;;;14.50;11.57;;;10.20;99.90;;;;;;5001323;28;38611;-77
2020/12/15 07:53:10;;;;;;;11.53;10.00;;;10.30;99.90;;;;;;5036101;28;36402;-76
2020/12/15 07:55:36;;;;;;;13.47;9.53;;;10.30;99.90;;;;;;5010757;28;39730;-76
2020/12/15 07:58:13;;;;;;;15.83;10.87;;;10.30;99.90;;;;;;5031458;28;37922;-74
2020/12/15 08:00:39;;;;;;;11.90;9.60;;;10.30;99.90;;;;;;5001201;28;37437;-75
2020/12/15 08:03:05;;;;;;;14.93;10.33;;;10.30;99.90;;;;;;5002050;28;36981;-77
2020/12/15 08:05:31;;;;;;;14.37;10.23;;;10.30;99.90;;;;;;5004288;28;39646;-75
2020/12/15 08:08:03;;;;;;;15.97;11.13;;;10.20;99.90;;;;;;5006015;28;37348;-75
2020/12/15 08:10:31;;;;;;;14.67;10.60;;;10.20;99.90;;;;;;5008778;28;47547;-75
2020/12/15 08:13:00;;;;;;;13.47;10.07;;;10.20;99.90;;;;;;5029348;28;37284;-75
2020/12/15 08:15:27;;;;;;;12.70;10.03;;;10.20;99.90;;;;;;5005403;28;39822;-74
2020/12/15 08:17:54;;;;;;;13.63;10.73;;;10.30;99.90;;;;;;5021353;28;39206;-75
2020/12/15 08:20:28;;;;;;;13.73;10.80;;;10.20;99.90;;;;;;5023297;28;36931;-75
2020/12/15 08:23:12;;;;;;;14.53;10.13;;;10.20;99.90;;;;;;5024080;28;36469;-76
2020/12/15 08:25:43;;;;;;;14.27;9.57;;;10.30;99.90;;;;;;5023182;28;47240;-75
2020/12/15 08:28:21;;;;;;;12.53;9.83;;;10.30;99.90;;;;;;4997761;28;39453;-75
2020/12/15 08:30:48;;;;;;;13.80;10.70;;;10.20;99.90;;;;;;4995520;28;37728;-75
2020/12/15 08:33:30;;;;;;;15.30;10.47;;;10.20;99.90;;;;;;5001021;28;36180;-77
2020/12/15 08:35:58;;;;;;;13.60;10.82;;;10.30;99.90;;;;;;5002231;28;38838;-80
2020/12/15 08:38:25;;;;;;;11.43;9.73;;;10.30;99.90;;;;;;5000072;28;38450;-78
2020/12/15 08:40:53;;;;;;;13.50;11.07;;;10.30;99.90;;;;;;5000360;28;37915;-77
2020/12/15 08:43:20;;;;;;;15.20;10.63;;;10.30;99.90;;;;;;5013017;28;34700;-77
2020/12/15 08:45:46;;;;;;;16.03;11.03;;;10.30;99.90;;;;;;5052046;28;38096;-75
2020/12/15 08:48:20;;;;;;;14.03;10.57;;;10.30;99.90;;;;;;5052272;28;37576;-75
2020/12/15 08:50:47;;;;;;;15.23;10.87;;;10.30;99.90;;;;;;5043548;28;39983;-76
2020/12/15 08:53:15;;;;;;;16.53;11.03;;;10.40;99.90;;;;;;5025947;28;37021;-75
2020/12/15 08:55:43;;;;;;;15.67;11.13;;;10.40;99.90;;;;;;5042784;28;38696;-75
2020/12/15 08:58:13;;;;;;;14.70;10.37;;;10.40;99.90;;;;;;5054644;28;37329;-76
2020/12/15 09:00:40;;;;;;;13.10;10.20;;;10.40;99.90;;;;;;5024786;28;38820;-76
2020/12/15 09:03:17;;;;;;;14.70;10.90;;;10.40;99.90;;;;;;5032138;28;37365;-75
2020/12/15 09:05:50;;;;;;;14.63;10.60;;;10.40;99.90;;;;;;5057124;28;39609;-76
2020/12/15 09:08:18;;;;;;;14.97;11.53;;;10.40;99.90;;;;;;5033693;28;37662;-75
2020/12/15 09:10:44;;;;;;;12.43;10.73;;;10.40;99.90;;;;;;5039295;28;36575;-75
2020/12/15 09:13:11;;;;;;;13.23;10.90;;;10.40;99.90;;;;;;5019060;28;38160;-75
2020/12/15 09:15:50;;;;;;;15.00;11.37;;;10.40;99.90;;;;;;5033666;28;37651;-76
2020/12/15 09:18:27;;;;;;;13.67;10.10;;;10.40;99.90;;;;;;5041869;28;37551;-76
2020/12/15 09:20:54;;;;;;;14.03;10.47;;;10.40;99.90;;;;;;5018565;28;39135;-75
2020/12/15 09:23:26;;;;;;;15.40;10.70;;;10.40;99.90;;;;;;5022442;28;36441;-75
2020/12/15 09:25:54;;;;;;;15.32;11.00;;;10.50;99.90;;;;;;5025013;28;37583;-76
2020/12/15 09:28:27;;;;;;;18.13;11.33;;;10.50;99.90;;;;;;5020892;28;38445;-75
2020/12/15 09:30:53;;;;;;;14.35;11.50;;;10.50;99.90;;;;;;5023836;28;38453;-75
2020/12/15 09:33:20;;;;;;;16.17;10.90;;;10.40;99.90;;;;;;5023131;28;37516;-75
2020/12/15 09:35:47;;;;;;;16.60;10.43;;;10.50;99.90;;;;;;5022541;28;37921;-75
2020/12/15 09:38:14;;;;;;;14.60;11.90;;;10.50;99.90;;;;;;5053116;28;37391;-75
2020/12/15 09:40:40;;;;;;;13.37;10.43;;;10.50;99.90;;;;;;5025983;28;36992;-75
2020/12/15 09:43:07;;;;;;;15.23;10.37;;;10.50;99.90;;;;;;5021466;28;37226;-76
2020/12/15 09:45:33;;;;;;;14.73;10.77;;;10.50;99.90;;;;;;5023722;28;38029;-75
2020/12/15 09:48:01;;;;;;;13.27;9.27;;;10.50;99.90;;;;;;5011457;28;38305;-75
2020/12/15 09:50:27;;;;;;;12.27;10.10;;;10.50;99.90;;;;;;4996447;28;49209;-75
2020/12/15 09:52:57;;;;;;;15.53;11.13;;;10.50;99.90;;;;;;4999442;28;37362;-75
2020/12/15 09:55:23;;;;;;;15.43;11.97;;;10.50;99.90;;;;;;5003121;28;37690;-76
2020/12/15 09:57:49;;;;;;;15.43;11.07;;;10.60;99.90;;;;;;5006901;28;38212;-75
2020/12/15 10:00:15;;;;;;;14.83;11.30;;;10.50;99.90;;;;;;5037866;28;38473;-76
2020/12/15 10:02:41;;;;;;;15.33;11.63;;;10.50;99.90;;;;;;5017867;28;37462;-76
2020/12/15 10:05:10;;;;;;;14.65;11.35;;;10.50;99.90;;;;;;5039679;28;37942;-76
2020/12/15 10:07:38;;;;;;;15.50;10.97;;;10.50;99.90;;;;;;5050922;28;37776;-76
2020/12/15 10:10:07;;;;;;;17.50;12.73;;;10.60;99.90;;;;;;5027069;28;38295;-76
2020/12/15 10:12:33;;;;;;;14.07;10.87;;;10.50;99.90;;;;;;5010278;28;36280;-75
2020/12/15 10:14:59;;;;;;;14.63;10.77;;;10.50;99.90;;;;;;5007461;28;40044;-75
2020/12/15 10:17:27;;;;;;;15.07;11.30;;;10.50;99.90;;;;;;5011637;28;39115;-76
2020/12/15 10:19:53;;;;;;;15.13;11.03;;;10.50;99.90;;;;;;5012211;28;38052;-76
2020/12/15 10:22:19;;;;;;;14.00;10.60;;;10.50;99.90;;;;;;5007876;28;37992;-76
2020/12/15 10:24:45;;;;;;;17.40;12.47;;;10.50;99.90;;;;;;5007288;28;39529;-76
2020/12/15 10:27:11;;;;;;;17.20;11.17;;;10.40;99.90;;;;;;5008118;28;38349;-75
2020/12/15 10:29:37;;;;;;;20.93;11.90;;;10.40;99.90;;;;;;5006054;28;38650;-79
2020/12/15 10:32:04;;;;;;;17.23;12.50;;;10.50;99.90;;;;;;4998839;28;38141;-76
2020/12/15 10:34:30;;;;;;;15.03;12.47;;;10.50;99.90;;;;;;5007866;28;39092;-75
2020/12/15 10:36:56;;;;;;;21.03;14.83;;;10.40;99.90;;;;;;5005226;28;38910;-75
2020/12/15 10:39:23;;;;;;;16.77;13.73;;;10.50;99.90;;;;;;5006931;28;36912;-76
2020/12/15 10:41:50;;;;;;;14.10;12.07;;;10.50;99.90;;;;;;5009299;28;38829;-76
2020/12/15 10:44:19;;;;;;;19.87;12.67;;;10.50;99.90;;;;;;5005251;28;39475;-75
2020/12/15 10:46:46;;;;;;;16.23;12.80;;;10.60;99.90;;;;;;5014271;28;37334;-76
2020/12/15 10:49:15;;;;;;;18.07;13.90;;;10.60;99.90;;;;;;5008819;28;37126;-76
2020/12/15 10:51:41;;;;;;;17.67;12.50;;;10.60;99.90;;;;;;5021726;28;36871;-76
2020/12/15 10:54:07;;;;;;;14.90;11.67;;;10.70;99.90;;;;;;5019457;28;38881;-76
2020/12/15 10:56:34;;;;;;;16.10;11.52;;;10.60;99.90;;;;;;5025422;28;37288;-75
2020/12/15 10:59:00;;;;;;;16.48;12.05;;;10.70;99.90;;;;;;5017011;28;37506;-76
2020/12/15 11:01:26;;;;;;;14.60;12.80;;;10.70;99.90;;;;;;5023016;28;36546;-75
2020/12/15 11:03:53;;;;;;;14.70;11.43;;;10.70;99.90;;;;;;5025963;28;39791;-75
2020/12/15 11:06:24;;;;;;;18.93;14.37;;;10.70;99.90;;;;;;5024413;28;37353;-75
2020/12/15 11:08:53;;;;;;;18.80;12.47;;;10.70;99.90;;;;;;5024038;28;38857;-75
2020/12/15 11:11:19;;;;;;;16.17;11.23;;;10.70;99.90;;;;;;5017005;28;38006;-75
2020/12/15 11:13:46;;;;;;;20.48;14.43;;;10.70;99.90;;;;;;5021607;28;38879;-75
2020/12/15 11:16:13;;;;;;;16.05;12.48;;;10.70;99.90;;;;;;5019580;28;39312;-75
2020/12/15 11:18:39;;;;;;;18.00;12.57;;;10.70;99.90;;;;;;5020774;28;36943;-75
2020/12/15 11:21:05;;;;;;;16.73;12.35;;;10.70;99.90;;;;;;5035942;28;38321;-76
2020/12/15 11:23:31;;;;;;;17.45;13.63;;;10.70;99.90;;;;;;5013119;28;39321;-76
2020/12/15 11:25:57;;;;;;;19.77;13.83;;;10.70;99.90;;;;;;5023508;28;38039;-76
2020/12/15 11:28:23;;;;;;;17.83;14.63;;;10.60;99.90;;;;;;5017900;28;38265;-78
2020/12/15 11:30:49;;;;;;;17.77;13.18;;;10.60;99.90;;;;;;5021272;28;36834;-75
2020/12/15 11:33:15;;;;;;;18.27;14.27;;;10.60;99.90;;;;;;5024512;28;38993;-76
2020/12/15 11:35:41;;;;;;;19.87;14.60;;;10.60;99.90;;;;;;5020246;28;38263;-75
2020/12/15 11:38:07;;;;;;;16.77;14.33;;;10.60;99.90;;;;;;5026504;28;36916;-76
2020/12/15 11:40:34;;;;;;;14.67;12.37;;;10.70;99.90;;;;;;5054404;28;36780;-75
2020/12/15 11:43:00;;;;;;;21.23;13.70;;;10.70;99.90;;;;;;5024825;28;38014;-75
2020/12/15 11:45:26;;;;;;;15.35;13.57;;;10.70;99.90;;;;;;5025933;28;38182;-75
2020/12/15 11:47:52;;;;;;;16.48;13.02;;;10.70;99.90;;;;;;5027116;28;36636;-76
2020/12/15 11:50:19;;;;;;;16.27;12.52;;;10.70;99.90;;;;;;5024709;28;36721;-75
2020/12/15 11:52:46;;;;;;;16.77;12.93;;;10.70;99.90;;;;;;5023790;28;38579;-76
2020/12/15 11:55:12;;;;;;;17.23;14.73;;;10.70;99.90;;;;;;5014481;28;38545;-75
2020/12/15 11:57:38;;;;;;;17.25;14.05;;;10.70;99.90;;;;;;5060437;28;40020;-75
2020/12/15 12:00:08;;;;;;;16.48;13.65;;;10.70;99.90;;;;;;5040952;28;36416;-76
2020/12/15 12:02:34;;;;;;;16.73;13.33;;;10.70;99.90;;;;;;5011478;28;37879;-76
2020/12/15 12:05:01;;;;;;;18.03;12.93;;;10.70;99.90;;;;;;5010567;28;39655;-76
2020/12/15 12:07:27;;;;;;;22.92;14.15;;;10.70;99.90;;;;;;5000035;28;38300;-75
2020/12/15 12:09:53;;;;;;;21.37;16.40;;;10.80;99.90;;;;;;5002495;28;38863;-75
2020/12/15 12:12:19;;;;;;;18.95;13.57;;;10.90;99.90;;;;;;5005596;28;37826;-75
2020/12/15 12:14:45;;;;;;;18.33;13.80;;;10.90;99.90;;;;;;5025310;28;38829;-75
2020/12/15 12:17:11;;;;;;;18.08;13.65;;;10.90;99.90;;;;;;5004317;28;37706;-75
2020/12/15 12:19:37;;;;;;;20.17;13.93;;;10.90;99.90;;;;;;5020029;28;36510;-76
2020/12/15 12:22:03;;;;;;;20.23;15.00;;;11.00;99.90;;;;;;5007742;28;38975;-76
2020/12/15 12:24:29;;;;;;;16.27;13.43;;;11.00;99.90;;;;;;5000112;28;38477;-75
2020/12/15 12:26:57;;;;;;;15.52;13.27;;;11.10;99.90;;;;;;5026179;28;38011;-75
2020/12/15 12:29:23;;;;;;;18.65;13.68;;;11.00;99.90;;;;;;5010388;28;36372;-75
2020/12/15 12:31:50;;;;;;;21.42;13.70;;;11.10;99.90;;;;;;5003919;28;38815;-75